CPA549 RJTT-VHHH
Flight info
| Callsign | CPA549 |
|---|---|
| Flight time | 3h 57m |
| Altitude | 38000 |
| Route | LAXAS Y56 TOHME Y54 TURFY Y24 KOSHI A1 ELATO V522 ABBEY |
| Aircraft | B77W/H-SDE1E2E3FGHIJ2J3J4J5M1RWXY/LB1D1 |
Departure
| Time | 2026-05-06 10:27 |
|---|---|
| Airport | Tokyo Haneda International Airport (RJTT) |
Arrival
| Time | 2026-05-06 14:25 |
|---|---|
| Airport | Hong Kong International Airport (VHHH) |
| Time | Latitude | Longitude | Altitude | Speed | Heading |
|---|---|---|---|---|---|
| 2026-05-06 08:18 | 35.54818 | 139.76590 | 27 ft | 0 kts | 150° |
| 2026-05-06 08:19 | 35.54814 | 139.76592 | 28 ft | 0 kts | 150° |
| 2026-05-06 10:15 | 35.54828 | 139.76583 | 17 ft | 4 kts | 150° |
| 2026-05-06 10:15 | 35.54848 | 139.76569 | 26 ft | 4 kts | 146° |
| 2026-05-06 10:15 | 35.54864 | 139.76547 | 26 ft | 4 kts | 103° |
| 2026-05-06 10:16 | 35.54864 | 139.76516 | 26 ft | 4 kts | 69° |
| 2026-05-06 10:16 | 35.54854 | 139.76491 | 27 ft | 1 kts | 59° |
| 2026-05-06 10:16 | 35.54854 | 139.76490 | 27 ft | 1 kts | 59° |
| 2026-05-06 10:18 | 35.54854 | 139.76491 | 27 ft | 0 kts | 59° |
| 2026-05-06 10:20 | 35.54856 | 139.76496 | 27 ft | 3 kts | 59° |
| 2026-05-06 10:20 | 35.54877 | 139.76540 | 27 ft | 7 kts | 59° |
| 2026-05-06 10:21 | 35.54903 | 139.76592 | 27 ft | 7 kts | 59° |
| 2026-05-06 10:21 | 35.54928 | 139.76646 | 28 ft | 8 kts | 59° |
| 2026-05-06 10:21 | 35.54955 | 139.76701 | 28 ft | 8 kts | 59° |
| 2026-05-06 10:21 | 35.54982 | 139.76758 | 28 ft | 8 kts | 60° |
| 2026-05-06 10:22 | 35.55012 | 139.76823 | 27 ft | 9 kts | 60° |
| 2026-05-06 10:22 | 35.55047 | 139.76895 | 26 ft | 10 kts | 60° |
| 2026-05-06 10:22 | 35.55081 | 139.76967 | 27 ft | 10 kts | 60° |
| 2026-05-06 10:22 | 35.55115 | 139.77040 | 27 ft | 10 kts | 60° |
| 2026-05-06 10:23 | 35.55150 | 139.77113 | 28 ft | 10 kts | 60° |
| 2026-05-06 10:23 | 35.55190 | 139.77184 | 27 ft | 11 kts | 37° |
| 2026-05-06 10:23 | 35.55271 | 139.77169 | 31 ft | 13 kts | 333° |
| 2026-05-06 10:23 | 35.55351 | 139.77111 | 30 ft | 13 kts | 330° |
| 2026-05-06 10:24 | 35.55431 | 139.77054 | 30 ft | 13 kts | 330° |
| 2026-05-06 10:24 | 35.55511 | 139.76997 | 27 ft | 11 kts | 330° |
| 2026-05-06 10:24 | 35.55567 | 139.76979 | 28 ft | 8 kts | 11° |
| 2026-05-06 10:24 | 35.55614 | 139.77010 | 28 ft | 8 kts | 33° |
| 2026-05-06 10:25 | 35.55627 | 139.77020 | 28 ft | 0 kts | 33° |
| 2026-05-06 10:25 | 35.55644 | 139.77034 | 28 ft | 8 kts | 33° |
| 2026-05-06 10:25 | 35.55685 | 139.77087 | 29 ft | 9 kts | 76° |
| 2026-05-06 10:26 | 35.55654 | 139.77148 | 30 ft | 9 kts | 144° |
| 2026-05-06 10:26 | 35.55543 | 139.77230 | 29 ft | 38 kts | 150° |
| 2026-05-06 10:26 | 35.55097 | 139.77546 | 25 ft | 110 kts | 150° |
| 2026-05-06 10:26 | 35.54250 | 139.78145 | 29 ft | 166 kts | 151° |
| 2026-05-06 10:27 | 35.53210 | 139.78885 | 454 ft | 172 kts | 152° |
| 2026-05-06 10:27 | 35.52202 | 139.79616 | 1198 ft | 166 kts | 153° |
| 2026-05-06 10:27 | 35.51209 | 139.80310 | 1892 ft | 163 kts | 153° |
| 2026-05-06 10:27 | 35.50216 | 139.81013 | 2326 ft | 170 kts | 154° |
| 2026-05-06 10:28 | 35.49161 | 139.81765 | 2711 ft | 179 kts | 154° |
| 2026-05-06 10:28 | 35.48070 | 139.82551 | 3143 ft | 184 kts | 154° |
| 2026-05-06 10:28 | 35.46943 | 139.83348 | 3499 ft | 196 kts | 155° |
| 2026-05-06 10:28 | 35.45727 | 139.84184 | 3920 ft | 204 kts | 154° |
| 2026-05-06 10:29 | 35.44498 | 139.85027 | 4478 ft | 202 kts | 162° |
| 2026-05-06 10:29 | 35.43097 | 139.85272 | 4784 ft | 205 kts | 190° |
| 2026-05-06 10:29 | 35.41809 | 139.84761 | 5563 ft | 188 kts | 209° |
| 2026-05-06 10:29 | 35.40637 | 139.83887 | 5766 ft | 210 kts | 215° |
| 2026-05-06 10:30 | 35.39429 | 139.82812 | 6186 ft | 215 kts | 217° |
| 2026-05-06 10:30 | 35.38261 | 139.81687 | 6860 ft | 213 kts | 220° |
| 2026-05-06 10:30 | 35.37093 | 139.80465 | 7141 ft | 231 kts | 221° |
| 2026-05-06 10:30 | 35.35824 | 139.79105 | 7325 ft | 253 kts | 220° |
| 2026-05-06 10:31 | 35.34443 | 139.77720 | 7884 ft | 260 kts | 219° |
| 2026-05-06 10:31 | 35.33028 | 139.76301 | 8457 ft | 264 kts | 225° |
| 2026-05-06 10:31 | 35.31845 | 139.74550 | 9023 ft | 270 kts | 235° |
| 2026-05-06 10:31 | 35.30794 | 139.72659 | 9834 ft | 268 kts | 237° |
| 2026-05-06 10:32 | 35.29772 | 139.70773 | 10430 ft | 274 kts | 237° |
| 2026-05-06 10:32 | 35.28653 | 139.68721 | 10614 ft | 298 kts | 237° |
| 2026-05-06 10:32 | 35.27446 | 139.66538 | 10809 ft | 321 kts | 236° |
| 2026-05-06 10:32 | 35.26140 | 139.64207 | 10985 ft | 343 kts | 236° |
| 2026-05-06 10:33 | 35.24776 | 139.61796 | 11502 ft | 354 kts | 236° |
| 2026-05-06 10:33 | 35.23346 | 139.59287 | 12211 ft | 362 kts | 236° |
| 2026-05-06 10:33 | 35.21894 | 139.56753 | 13086 ft | 365 kts | 236° |
| 2026-05-06 10:33 | 35.20426 | 139.54197 | 13983 ft | 369 kts | 236° |
| 2026-05-06 10:34 | 35.18940 | 139.51615 | 14802 ft | 371 kts | 236° |
| 2026-05-06 10:34 | 35.17458 | 139.49043 | 15782 ft | 369 kts | 237° |
| 2026-05-06 10:34 | 35.15985 | 139.46488 | 16786 ft | 367 kts | 237° |
| 2026-05-06 10:34 | 35.14516 | 139.43941 | 17715 ft | 366 kts | 238° |
| 2026-05-06 10:35 | 35.13065 | 139.41429 | 18825 ft | 358 kts | 237° |
| 2026-05-06 10:35 | 35.11627 | 139.38937 | 19570 ft | 360 kts | 237° |
| 2026-05-06 10:35 | 35.10174 | 139.36420 | 20151 ft | 365 kts | 236° |
| 2026-05-06 10:35 | 35.08698 | 139.33864 | 20772 ft | 369 kts | 236° |
| 2026-05-06 10:36 | 35.07233 | 139.31334 | 21424 ft | 371 kts | 235° |
| 2026-05-06 10:36 | 35.05744 | 139.28755 | 22099 ft | 372 kts | 236° |
| 2026-05-06 10:36 | 35.04441 | 139.26014 | 22727 ft | 375 kts | 243° |
| 2026-05-06 10:36 | 35.03385 | 139.23080 | 23318 ft | 379 kts | 245° |
| 2026-05-06 10:37 | 35.02467 | 139.20040 | 23852 ft | 384 kts | 249° |
| 2026-05-06 10:37 | 35.01816 | 139.16861 | 24303 ft | 389 kts | 255° |
| 2026-05-06 10:37 | 35.01298 | 139.13614 | 24787 ft | 391 kts | 255° |
| 2026-05-06 10:37 | 35.00780 | 139.10348 | 25283 ft | 392 kts | 255° |
| 2026-05-06 10:38 | 35.00249 | 139.07084 | 25859 ft | 392 kts | 255° |
| 2026-05-06 10:38 | 34.99709 | 139.03823 | 26382 ft | 392 kts | 255° |
| 2026-05-06 10:38 | 34.99165 | 139.00554 | 26905 ft | 394 kts | 256° |
| 2026-05-06 10:38 | 34.98737 | 138.97243 | 27353 ft | 398 kts | 260° |
| 2026-05-06 10:39 | 34.98542 | 138.93896 | 27770 ft | 403 kts | 263° |
| 2026-05-06 10:39 | 34.98385 | 138.90476 | 28161 ft | 405 kts | 263° |
| 2026-05-06 10:39 | 34.98209 | 138.87042 | 28623 ft | 405 kts | 262° |
| 2026-05-06 10:39 | 34.98027 | 138.83612 | 29014 ft | 407 kts | 263° |
| 2026-05-06 10:40 | 34.97842 | 138.80153 | 29458 ft | 408 kts | 263° |
| 2026-05-06 10:40 | 34.97656 | 138.76697 | 29956 ft | 407 kts | 263° |
| 2026-05-06 10:40 | 34.97470 | 138.73251 | 30339 ft | 408 kts | 263° |
| 2026-05-06 10:40 | 34.97282 | 138.69792 | 30566 ft | 411 kts | 262° |
| 2026-05-06 10:41 | 34.97091 | 138.66299 | 30748 ft | 414 kts | 262° |
| 2026-05-06 10:41 | 34.96898 | 138.62785 | 30893 ft | 417 kts | 262° |
| 2026-05-06 10:41 | 34.96706 | 138.59286 | 31080 ft | 419 kts | 262° |
| 2026-05-06 10:41 | 34.96512 | 138.55742 | 31398 ft | 418 kts | 262° |
| 2026-05-06 10:42 | 34.96317 | 138.52213 | 31742 ft | 417 kts | 262° |
| 2026-05-06 10:42 | 34.96122 | 138.48687 | 32198 ft | 413 kts | 262° |
| 2026-05-06 10:42 | 34.95929 | 138.45211 | 32630 ft | 410 kts | 261° |
| 2026-05-06 10:42 | 34.95733 | 138.41737 | 32877 ft | 411 kts | 261° |
| 2026-05-06 10:43 | 34.95535 | 138.38258 | 33098 ft | 412 kts | 261° |
| 2026-05-06 10:43 | 34.95337 | 138.34773 | 33383 ft | 412 kts | 261° |
| 2026-05-06 10:43 | 34.95138 | 138.31288 | 33698 ft | 411 kts | 261° |
| 2026-05-06 10:44 | 34.94739 | 138.24351 | 34272 ft | 410 kts | 260° |
| 2026-05-06 10:44 | 34.94539 | 138.20893 | 34497 ft | 409 kts | 260° |
| 2026-05-06 10:44 | 34.94337 | 138.17433 | 34741 ft | 408 kts | 260° |
| 2026-05-06 10:44 | 34.94138 | 138.13996 | 35043 ft | 406 kts | 260° |
| 2026-05-06 10:45 | 34.93940 | 138.10574 | 35369 ft | 403 kts | 260° |
| 2026-05-06 10:45 | 34.93740 | 138.07174 | 35655 ft | 401 kts | 260° |
| 2026-05-06 10:45 | 34.93540 | 138.03792 | 35899 ft | 400 kts | 260° |
| 2026-05-06 10:45 | 34.93340 | 138.00406 | 36110 ft | 400 kts | 260° |
| 2026-05-06 10:46 | 34.93139 | 137.97026 | 36249 ft | 401 kts | 260° |
| 2026-05-06 10:46 | 34.92936 | 137.93640 | 36469 ft | 400 kts | 260° |
| 2026-05-06 10:46 | 34.92803 | 137.91406 | 36648 ft | 398 kts | 260° |
| 2026-05-06 10:46 | 34.92535 | 137.86922 | 37000 ft | 396 kts | 260° |
| 2026-05-06 10:47 | 34.92335 | 137.83626 | 37205 ft | 395 kts | 260° |
| 2026-05-06 10:47 | 34.92134 | 137.80292 | 37424 ft | 394 kts | 260° |
| 2026-05-06 10:47 | 34.92004 | 137.78048 | 37569 ft | 393 kts | 260° |
| 2026-05-06 10:47 | 34.91751 | 137.73642 | 37780 ft | 393 kts | 260° |
| 2026-05-06 10:48 | 34.91567 | 137.71411 | 37913 ft | 389 kts | 256° |
| 2026-05-06 10:48 | 34.91084 | 137.68172 | 38037 ft | 388 kts | 253° |
| 2026-05-06 10:48 | 34.90476 | 137.65028 | 38086 ft | 386 kts | 252° |
| 2026-05-06 10:49 | 34.88801 | 137.58885 | 38137 ft | 378 kts | 247° |
| 2026-05-06 10:49 | 34.86966 | 137.52899 | 38138 ft | 376 kts | 247° |
| 2026-05-06 10:50 | 34.85157 | 137.46929 | 38150 ft | 375 kts | 248° |
| 2026-05-06 10:50 | 34.83432 | 137.40933 | 38143 ft | 375 kts | 248° |
| 2026-05-06 10:51 | 34.81731 | 137.34913 | 38134 ft | 376 kts | 248° |
| 2026-05-06 10:51 | 34.80016 | 137.28887 | 38139 ft | 378 kts | 248° |
| 2026-05-06 10:52 | 34.78295 | 137.22872 | 38138 ft | 379 kts | 248° |
| 2026-05-06 10:52 | 34.76553 | 137.16801 | 38137 ft | 380 kts | 248° |
| 2026-05-06 10:53 | 34.74803 | 137.10714 | 38141 ft | 382 kts | 248° |
| 2026-05-06 10:53 | 34.73047 | 137.04617 | 38138 ft | 382 kts | 248° |
| 2026-05-06 10:54 | 34.71089 | 136.98631 | 38132 ft | 380 kts | 242° |
| 2026-05-06 10:54 | 34.68502 | 136.93027 | 38130 ft | 381 kts | 238° |
| 2026-05-06 10:55 | 34.65412 | 136.87843 | 38142 ft | 382 kts | 233° |
| 2026-05-06 10:55 | 34.62109 | 136.82780 | 38105 ft | 383 kts | 233° |
| 2026-05-06 10:56 | 34.58795 | 136.77709 | 38128 ft | 384 kts | 233° |
| 2026-05-06 10:56 | 34.55475 | 136.72609 | 38140 ft | 386 kts | 233° |
| 2026-05-06 10:57 | 34.52141 | 136.67484 | 38135 ft | 388 kts | 233° |
| 2026-05-06 10:57 | 34.48792 | 136.62339 | 38141 ft | 389 kts | 233° |
| 2026-05-06 10:58 | 34.45434 | 136.57188 | 38139 ft | 390 kts | 233° |
| 2026-05-06 10:58 | 34.42065 | 136.52025 | 38134 ft | 391 kts | 233° |
| 2026-05-06 10:59 | 34.38684 | 136.46854 | 38147 ft | 392 kts | 233° |
| 2026-05-06 10:59 | 34.35318 | 136.41712 | 38152 ft | 392 kts | 233° |
| 2026-05-06 11:00 | 34.31928 | 136.36542 | 38126 ft | 392 kts | 233° |
| 2026-05-06 11:00 | 34.28535 | 136.31393 | 38162 ft | 391 kts | 232° |
| 2026-05-06 11:01 | 34.25148 | 136.26241 | 38146 ft | 391 kts | 232° |
| 2026-05-06 11:01 | 34.21759 | 136.21093 | 38146 ft | 390 kts | 232° |
| 2026-05-06 11:02 | 34.18403 | 136.15935 | 38122 ft | 390 kts | 234° |
| 2026-05-06 11:02 | 34.15065 | 136.10771 | 38142 ft | 390 kts | 232° |
| 2026-05-06 11:03 | 34.11654 | 136.05703 | 38139 ft | 392 kts | 232° |
| 2026-05-06 11:03 | 34.08231 | 136.00568 | 38162 ft | 392 kts | 232° |
| 2026-05-06 11:04 | 34.04796 | 135.95420 | 38135 ft | 394 kts | 232° |
| 2026-05-06 11:04 | 34.01376 | 135.90259 | 38134 ft | 394 kts | 233° |
| 2026-05-06 11:05 | 33.97955 | 135.85111 | 38143 ft | 393 kts | 232° |
| 2026-05-06 11:05 | 33.94488 | 135.80010 | 38174 ft | 393 kts | 232° |
| 2026-05-06 11:06 | 33.91094 | 135.74877 | 38105 ft | 394 kts | 232° |
| 2026-05-06 11:06 | 33.87667 | 135.69712 | 38139 ft | 396 kts | 232° |
| 2026-05-06 11:07 | 33.84213 | 135.64536 | 38136 ft | 397 kts | 232° |
| 2026-05-06 11:07 | 33.80736 | 135.59348 | 38128 ft | 399 kts | 232° |
| 2026-05-06 11:08 | 33.77249 | 135.54149 | 38124 ft | 399 kts | 232° |
| 2026-05-06 11:08 | 33.73757 | 135.48953 | 38094 ft | 400 kts | 232° |
| 2026-05-06 11:09 | 33.70264 | 135.43755 | 38097 ft | 400 kts | 232° |
| 2026-05-06 11:09 | 33.66794 | 135.38603 | 38101 ft | 399 kts | 231° |
| 2026-05-06 11:10 | 33.63300 | 135.33426 | 38099 ft | 399 kts | 231° |
| 2026-05-06 11:10 | 33.59812 | 135.28262 | 38105 ft | 398 kts | 231° |
| 2026-05-06 11:11 | 33.56323 | 135.23104 | 38108 ft | 398 kts | 231° |
| 2026-05-06 11:11 | 33.52834 | 135.17955 | 38113 ft | 397 kts | 231° |
| 2026-05-06 11:12 | 33.49348 | 135.12815 | 38119 ft | 397 kts | 231° |
| 2026-05-06 11:12 | 33.45856 | 135.07674 | 38101 ft | 397 kts | 231° |
| 2026-05-06 11:13 | 33.42365 | 135.02541 | 38130 ft | 397 kts | 231° |
| 2026-05-06 11:13 | 33.38897 | 134.97442 | 38135 ft | 398 kts | 231° |
| 2026-05-06 11:14 | 33.35410 | 134.92295 | 38126 ft | 399 kts | 231° |
| 2026-05-06 11:14 | 33.31911 | 134.87134 | 38128 ft | 400 kts | 231° |
| 2026-05-06 11:15 | 33.28405 | 134.81971 | 38121 ft | 400 kts | 231° |
| 2026-05-06 11:15 | 33.24911 | 134.76832 | 38134 ft | 401 kts | 231° |
| 2026-05-06 11:16 | 33.21389 | 134.71660 | 38125 ft | 401 kts | 231° |
| 2026-05-06 11:16 | 33.18090 | 134.66296 | 38112 ft | 401 kts | 239° |
| 2026-05-06 11:17 | 33.15542 | 134.60342 | 38139 ft | 403 kts | 244° |
| 2026-05-06 11:17 | 33.13713 | 134.53997 | 38124 ft | 406 kts | 250° |
| 2026-05-06 11:18 | 33.12152 | 134.47502 | 38116 ft | 407 kts | 250° |
| 2026-05-06 11:18 | 33.10582 | 134.41057 | 38112 ft | 407 kts | 250° |
| 2026-05-06 11:19 | 33.08980 | 134.34579 | 38115 ft | 407 kts | 250° |
| 2026-05-06 11:19 | 33.07369 | 134.28097 | 38117 ft | 407 kts | 250° |
| 2026-05-06 11:20 | 33.05758 | 134.21614 | 38133 ft | 408 kts | 250° |
| 2026-05-06 11:20 | 33.04182 | 134.15107 | 38098 ft | 409 kts | 250° |
| 2026-05-06 11:21 | 33.02618 | 134.08628 | 38109 ft | 409 kts | 250° |
| 2026-05-06 11:21 | 33.01037 | 134.02107 | 38130 ft | 409 kts | 250° |
| 2026-05-06 11:22 | 32.99449 | 133.95584 | 38110 ft | 410 kts | 250° |
| 2026-05-06 11:22 | 32.97856 | 133.89057 | 38113 ft | 410 kts | 250° |
| 2026-05-06 11:23 | 32.96255 | 133.82516 | 38122 ft | 411 kts | 250° |
| 2026-05-06 11:23 | 32.94652 | 133.75984 | 38111 ft | 411 kts | 250° |
| 2026-05-06 11:24 | 32.93044 | 133.69442 | 38112 ft | 412 kts | 250° |
| 2026-05-06 11:24 | 32.91444 | 133.62949 | 38124 ft | 412 kts | 250° |
| 2026-05-06 11:25 | 32.89826 | 133.56404 | 38094 ft | 412 kts | 250° |
| 2026-05-06 11:25 | 32.88203 | 133.49876 | 38109 ft | 411 kts | 250° |
| 2026-05-06 11:26 | 32.86574 | 133.43346 | 38108 ft | 412 kts | 250° |
| 2026-05-06 11:26 | 32.84942 | 133.36812 | 38119 ft | 412 kts | 250° |
| 2026-05-06 11:27 | 32.83308 | 133.30285 | 38115 ft | 411 kts | 250° |
| 2026-05-06 11:27 | 32.81673 | 133.23769 | 38100 ft | 411 kts | 250° |
| 2026-05-06 11:28 | 32.80033 | 133.17251 | 38117 ft | 411 kts | 250° |
| 2026-05-06 11:28 | 32.78400 | 133.10773 | 38107 ft | 412 kts | 250° |
| 2026-05-06 11:29 | 32.76753 | 133.04254 | 38112 ft | 412 kts | 249° |
| 2026-05-06 11:29 | 32.74735 | 132.97922 | 38114 ft | 409 kts | 242° |
| 2026-05-06 11:30 | 32.72037 | 132.91984 | 38110 ft | 408 kts | 239° |
| 2026-05-06 11:30 | 32.69268 | 132.86082 | 38108 ft | 409 kts | 239° |
| 2026-05-06 11:31 | 32.66500 | 132.80167 | 38108 ft | 410 kts | 239° |
| 2026-05-06 11:31 | 32.63735 | 132.74255 | 38108 ft | 410 kts | 239° |
| 2026-05-06 11:32 | 32.60982 | 132.68372 | 38101 ft | 411 kts | 239° |
| 2026-05-06 11:32 | 32.58207 | 132.62451 | 38105 ft | 411 kts | 239° |
| 2026-05-06 11:33 | 32.55427 | 132.56526 | 38105 ft | 411 kts | 239° |
| 2026-05-06 11:33 | 32.52640 | 132.50601 | 38100 ft | 412 kts | 239° |
| 2026-05-06 11:34 | 32.49850 | 132.44676 | 38106 ft | 412 kts | 239° |
| 2026-05-06 11:34 | 32.47052 | 132.38746 | 38120 ft | 413 kts | 238° |
| 2026-05-06 11:35 | 32.44721 | 132.33813 | 38113 ft | 413 kts | 238° |
| 2026-05-06 11:35 | 32.41917 | 132.27885 | 38100 ft | 413 kts | 238° |
| 2026-05-06 11:36 | 32.39106 | 132.21952 | 38103 ft | 413 kts | 238° |
| 2026-05-06 11:36 | 32.36289 | 132.16016 | 38110 ft | 413 kts | 238° |
| 2026-05-06 11:37 | 32.33470 | 132.10088 | 38085 ft | 413 kts | 238° |
| 2026-05-06 11:37 | 32.30652 | 132.04168 | 38102 ft | 413 kts | 238° |
| 2026-05-06 11:38 | 32.27850 | 131.98293 | 38131 ft | 413 kts | 238° |
| 2026-05-06 11:38 | 32.25023 | 131.92375 | 38111 ft | 413 kts | 238° |
| 2026-05-06 11:39 | 32.22192 | 131.86459 | 38074 ft | 413 kts | 238° |
| 2026-05-06 11:39 | 32.19360 | 131.80547 | 38096 ft | 413 kts | 238° |
| 2026-05-06 11:40 | 32.16538 | 131.74670 | 38117 ft | 414 kts | 238° |
| 2026-05-06 11:40 | 32.13696 | 131.68757 | 38113 ft | 414 kts | 238° |
| 2026-05-06 11:41 | 32.10844 | 131.62835 | 38090 ft | 415 kts | 238° |
| 2026-05-06 11:41 | 32.07993 | 131.56921 | 38104 ft | 415 kts | 238° |
| 2026-05-06 11:42 | 32.05137 | 131.51009 | 38113 ft | 415 kts | 238° |
| 2026-05-06 11:42 | 32.02277 | 131.45097 | 38105 ft | 414 kts | 238° |
| 2026-05-06 11:43 | 31.99421 | 131.39203 | 38091 ft | 414 kts | 238° |
| 2026-05-06 11:43 | 31.96566 | 131.33320 | 38120 ft | 414 kts | 238° |
| 2026-05-06 11:44 | 31.92297 | 131.24540 | 38112 ft | 413 kts | 238° |
| 2026-05-06 11:44 | 31.89440 | 131.18674 | 38117 ft | 412 kts | 238° |
| 2026-05-06 11:45 | 31.86584 | 131.12823 | 38119 ft | 412 kts | 238° |
| 2026-05-06 11:45 | 31.83724 | 131.06974 | 38112 ft | 413 kts | 238° |
| 2026-05-06 11:46 | 31.80859 | 131.01121 | 38113 ft | 413 kts | 238° |
| 2026-05-06 11:46 | 31.77987 | 130.95262 | 38106 ft | 413 kts | 238° |
| 2026-05-06 11:47 | 31.75112 | 130.89407 | 38112 ft | 414 kts | 238° |
| 2026-05-06 11:47 | 31.72249 | 130.83585 | 38110 ft | 414 kts | 238° |
| 2026-05-06 11:48 | 31.69360 | 130.77721 | 38103 ft | 415 kts | 238° |
| 2026-05-06 11:48 | 31.66466 | 130.71853 | 38107 ft | 415 kts | 238° |
| 2026-05-06 11:49 | 31.63565 | 130.65980 | 38088 ft | 416 kts | 237° |
| 2026-05-06 11:49 | 31.60655 | 130.60099 | 38094 ft | 416 kts | 237° |
| 2026-05-06 11:50 | 31.57757 | 130.54254 | 38090 ft | 417 kts | 237° |
| 2026-05-06 11:50 | 31.54841 | 130.48379 | 38092 ft | 417 kts | 237° |
| 2026-05-06 11:51 | 31.51914 | 130.42490 | 38096 ft | 418 kts | 237° |
| 2026-05-06 11:51 | 31.48980 | 130.36598 | 38090 ft | 419 kts | 238° |
| 2026-05-06 11:52 | 31.46032 | 130.30687 | 38080 ft | 420 kts | 238° |
| 2026-05-06 11:52 | 31.43079 | 130.24772 | 38091 ft | 421 kts | 238° |
| 2026-05-06 11:53 | 31.40105 | 130.18826 | 38077 ft | 423 kts | 238° |
| 2026-05-06 11:53 | 31.37116 | 130.12861 | 38078 ft | 426 kts | 238° |
| 2026-05-06 11:54 | 31.34116 | 130.06878 | 38086 ft | 427 kts | 238° |
| 2026-05-06 11:54 | 31.31096 | 130.00868 | 38074 ft | 430 kts | 239° |
| 2026-05-06 11:55 | 31.27898 | 129.94907 | 38084 ft | 434 kts | 232° |
| 2026-05-06 11:55 | 31.24183 | 129.89371 | 38075 ft | 432 kts | 231° |
| 2026-05-06 11:56 | 31.20489 | 129.83890 | 38075 ft | 431 kts | 231° |
| 2026-05-06 11:56 | 31.16787 | 129.78374 | 38058 ft | 433 kts | 232° |
| 2026-05-06 11:57 | 31.13053 | 129.72800 | 38078 ft | 439 kts | 232° |
| 2026-05-06 11:57 | 31.09268 | 129.67155 | 38081 ft | 444 kts | 232° |
| 2026-05-06 11:58 | 31.05463 | 129.61490 | 38084 ft | 447 kts | 232° |
| 2026-05-06 11:58 | 31.01608 | 129.55760 | 38052 ft | 451 kts | 232° |
| 2026-05-06 11:59 | 30.97718 | 129.49984 | 38069 ft | 454 kts | 232° |
| 2026-05-06 11:59 | 30.93801 | 129.44178 | 38080 ft | 457 kts | 232° |
| 2026-05-06 12:00 | 30.89864 | 129.38352 | 38076 ft | 458 kts | 232° |
| 2026-05-06 12:00 | 30.85924 | 129.32530 | 38063 ft | 460 kts | 233° |
| 2026-05-06 12:01 | 30.81946 | 129.26655 | 38081 ft | 465 kts | 233° |
| 2026-05-06 12:01 | 30.77924 | 129.20726 | 38078 ft | 469 kts | 233° |
| 2026-05-06 12:02 | 30.73912 | 129.14709 | 38072 ft | 471 kts | 234° |
| 2026-05-06 12:02 | 30.69981 | 129.08699 | 38053 ft | 464 kts | 234° |
| 2026-05-06 12:03 | 30.66085 | 129.02752 | 38074 ft | 467 kts | 234° |
| 2026-05-06 12:03 | 30.62122 | 128.96729 | 38069 ft | 471 kts | 234° |
| 2026-05-06 12:04 | 30.58127 | 128.90676 | 38070 ft | 472 kts | 233° |
| 2026-05-06 12:04 | 30.54135 | 128.84645 | 38064 ft | 472 kts | 234° |
| 2026-05-06 12:05 | 30.50105 | 128.78556 | 38074 ft | 478 kts | 234° |
| 2026-05-06 12:05 | 30.46036 | 128.72418 | 38066 ft | 481 kts | 234° |
| 2026-05-06 12:06 | 30.41987 | 128.66324 | 38054 ft | 476 kts | 234° |
| 2026-05-06 12:06 | 30.37944 | 128.60250 | 38064 ft | 478 kts | 235° |
| 2026-05-06 12:07 | 30.33856 | 128.54111 | 38069 ft | 484 kts | 235° |
| 2026-05-06 12:07 | 30.29728 | 128.47922 | 38063 ft | 487 kts | 234° |
| 2026-05-06 12:08 | 30.25607 | 128.41760 | 38047 ft | 480 kts | 234° |
| 2026-05-06 12:08 | 30.21538 | 128.35684 | 38057 ft | 477 kts | 234° |
| 2026-05-06 12:09 | 30.17483 | 128.29633 | 38056 ft | 476 kts | 234° |
| 2026-05-06 12:09 | 30.13423 | 128.23584 | 38059 ft | 476 kts | 234° |
| 2026-05-06 12:10 | 30.09353 | 128.17531 | 38041 ft | 479 kts | 236° |
| 2026-05-06 12:10 | 30.05264 | 128.11455 | 38067 ft | 485 kts | 236° |
| 2026-05-06 12:11 | 30.01102 | 128.05282 | 38064 ft | 490 kts | 235° |
| 2026-05-06 12:11 | 29.96905 | 127.99068 | 38052 ft | 492 kts | 235° |
| 2026-05-06 12:12 | 29.92692 | 127.92842 | 38036 ft | 493 kts | 236° |
| 2026-05-06 12:12 | 29.88477 | 127.86617 | 38053 ft | 492 kts | 236° |
| 2026-05-06 12:13 | 29.84202 | 127.80440 | 38040 ft | 493 kts | 233° |
| 2026-05-06 12:13 | 29.79732 | 127.74506 | 38052 ft | 492 kts | 232° |
| 2026-05-06 12:14 | 29.75228 | 127.68574 | 38049 ft | 491 kts | 233° |
| 2026-05-06 12:14 | 29.70771 | 127.62629 | 38050 ft | 490 kts | 233° |
| 2026-05-06 12:15 | 29.66328 | 127.56681 | 38048 ft | 489 kts | 233° |
| 2026-05-06 12:15 | 29.61889 | 127.50752 | 38046 ft | 489 kts | 233° |
| 2026-05-06 12:16 | 29.57455 | 127.44817 | 38042 ft | 488 kts | 235° |
| 2026-05-06 12:16 | 29.53246 | 127.38762 | 38039 ft | 487 kts | 237° |
| 2026-05-06 12:17 | 29.49077 | 127.32618 | 38050 ft | 488 kts | 236° |
| 2026-05-06 12:17 | 29.44873 | 127.26485 | 38050 ft | 489 kts | 236° |
| 2026-05-06 12:18 | 29.40641 | 127.20372 | 38049 ft | 489 kts | 237° |
| 2026-05-06 12:18 | 29.36394 | 127.14256 | 38037 ft | 490 kts | 236° |
| 2026-05-06 12:19 | 29.32174 | 127.08184 | 38046 ft | 490 kts | 236° |
| 2026-05-06 12:19 | 29.27921 | 127.02074 | 38046 ft | 490 kts | 236° |
| 2026-05-06 12:20 | 29.23671 | 126.95977 | 38049 ft | 489 kts | 237° |
| 2026-05-06 12:20 | 29.19422 | 126.89888 | 38042 ft | 489 kts | 237° |
| 2026-05-06 12:21 | 29.15175 | 126.83810 | 38044 ft | 488 kts | 237° |
| 2026-05-06 12:21 | 29.10964 | 126.77794 | 38038 ft | 487 kts | 237° |
| 2026-05-06 12:22 | 29.06727 | 126.71750 | 38051 ft | 487 kts | 237° |
| 2026-05-06 12:22 | 29.02487 | 126.65708 | 38044 ft | 486 kts | 237° |
| 2026-05-06 12:23 | 28.98256 | 126.59687 | 38035 ft | 486 kts | 237° |
| 2026-05-06 12:23 | 28.94705 | 126.54717 | 38040 ft | 486 kts | 236° |
| 2026-05-06 12:24 | 28.90319 | 126.48823 | 38033 ft | 487 kts | 235° |
| 2026-05-06 12:24 | 28.85927 | 126.42950 | 38034 ft | 486 kts | 236° |
| 2026-05-06 12:25 | 28.81547 | 126.37064 | 38038 ft | 486 kts | 236° |
| 2026-05-06 12:25 | 28.77172 | 126.31176 | 38036 ft | 486 kts | 236° |
| 2026-05-06 12:26 | 28.72802 | 126.25303 | 38030 ft | 486 kts | 236° |
| 2026-05-06 12:26 | 28.68425 | 126.19431 | 38030 ft | 485 kts | 236° |
| 2026-05-06 12:27 | 28.64080 | 126.13611 | 38030 ft | 485 kts | 236° |
| 2026-05-06 12:27 | 28.59797 | 126.07706 | 38032 ft | 483 kts | 237° |
| 2026-05-06 12:28 | 28.55595 | 126.01733 | 38033 ft | 483 kts | 237° |
| 2026-05-06 12:28 | 28.51395 | 125.95774 | 38034 ft | 483 kts | 237° |
| 2026-05-06 12:29 | 28.47173 | 125.89825 | 38033 ft | 483 kts | 237° |
| 2026-05-06 12:29 | 28.42968 | 125.83923 | 38034 ft | 483 kts | 237° |
| 2026-05-06 12:30 | 28.38737 | 125.77996 | 38030 ft | 483 kts | 237° |
| 2026-05-06 12:30 | 28.34505 | 125.72072 | 38037 ft | 482 kts | 237° |
| 2026-05-06 12:31 | 28.30277 | 125.66162 | 38033 ft | 482 kts | 237° |
| 2026-05-06 12:31 | 28.26050 | 125.60262 | 38030 ft | 481 kts | 237° |
| 2026-05-06 12:32 | 28.21825 | 125.54372 | 38025 ft | 481 kts | 237° |
| 2026-05-06 12:32 | 28.17599 | 125.48489 | 38015 ft | 480 kts | 237° |
| 2026-05-06 12:33 | 28.13406 | 125.42660 | 38024 ft | 479 kts | 237° |
| 2026-05-06 12:33 | 28.09198 | 125.36818 | 38028 ft | 478 kts | 237° |
| 2026-05-06 12:34 | 28.04992 | 125.30988 | 38023 ft | 478 kts | 237° |
| 2026-05-06 12:34 | 28.00788 | 125.25166 | 38043 ft | 477 kts | 237° |
| 2026-05-06 12:35 | 27.96582 | 125.19350 | 38037 ft | 477 kts | 237° |
| 2026-05-06 12:35 | 27.92377 | 125.13545 | 38030 ft | 477 kts | 237° |
| 2026-05-06 12:36 | 27.88171 | 125.07747 | 38026 ft | 476 kts | 237° |
| 2026-05-06 12:36 | 27.83967 | 125.01957 | 38033 ft | 476 kts | 237° |
| 2026-05-06 12:37 | 27.79765 | 124.96177 | 38026 ft | 476 kts | 237° |
| 2026-05-06 12:37 | 27.75589 | 124.90443 | 38033 ft | 475 kts | 237° |
| 2026-05-06 12:38 | 27.71387 | 124.84679 | 38032 ft | 475 kts | 236° |
| 2026-05-06 12:38 | 27.67186 | 124.78924 | 38032 ft | 475 kts | 237° |
| 2026-05-06 12:39 | 27.62983 | 124.73172 | 38025 ft | 475 kts | 236° |
| 2026-05-06 12:39 | 27.58781 | 124.67424 | 38034 ft | 474 kts | 236° |
| 2026-05-06 12:40 | 27.54609 | 124.61712 | 38032 ft | 474 kts | 236° |
| 2026-05-06 12:40 | 27.50416 | 124.55977 | 38029 ft | 474 kts | 236° |
| 2026-05-06 12:41 | 27.46226 | 124.50254 | 38032 ft | 473 kts | 236° |
| 2026-05-06 12:41 | 27.42036 | 124.44537 | 38024 ft | 473 kts | 236° |
| 2026-05-06 12:42 | 27.37847 | 124.38833 | 38033 ft | 472 kts | 236° |
| 2026-05-06 12:42 | 27.33662 | 124.33140 | 38021 ft | 472 kts | 236° |
| 2026-05-06 12:43 | 27.29479 | 124.27455 | 38032 ft | 471 kts | 236° |
| 2026-05-06 12:43 | 27.25293 | 124.21775 | 38030 ft | 471 kts | 236° |
| 2026-05-06 12:44 | 27.21115 | 124.16112 | 38034 ft | 471 kts | 236° |
| 2026-05-06 12:44 | 27.16957 | 124.10484 | 38009 ft | 471 kts | 236° |
| 2026-05-06 12:45 | 27.12777 | 124.04832 | 38026 ft | 470 kts | 236° |
| 2026-05-06 12:46 | 27.06487 | 123.96373 | 38029 ft | 471 kts | 235° |
| 2026-05-06 12:46 | 27.02250 | 123.90760 | 38030 ft | 471 kts | 234° |
| 2026-05-06 12:47 | 26.98011 | 123.85153 | 38011 ft | 471 kts | 234° |
| 2026-05-06 12:47 | 26.93774 | 123.79545 | 38024 ft | 471 kts | 234° |
| 2026-05-06 12:48 | 26.89540 | 123.73944 | 38029 ft | 471 kts | 234° |
| 2026-05-06 12:48 | 26.85331 | 123.68382 | 38029 ft | 471 kts | 234° |
| 2026-05-06 12:49 | 26.81094 | 123.62791 | 38024 ft | 471 kts | 234° |
| 2026-05-06 12:49 | 26.76857 | 123.57206 | 38027 ft | 470 kts | 234° |
| 2026-05-06 12:50 | 26.72621 | 123.51631 | 38028 ft | 470 kts | 234° |
| 2026-05-06 12:50 | 26.68381 | 123.46055 | 38028 ft | 470 kts | 234° |
| 2026-05-06 12:51 | 26.64145 | 123.40492 | 38021 ft | 470 kts | 234° |
| 2026-05-06 12:51 | 26.59906 | 123.34929 | 38010 ft | 469 kts | 234° |
| 2026-05-06 12:52 | 26.55699 | 123.29410 | 38020 ft | 469 kts | 234° |
| 2026-05-06 12:52 | 26.51468 | 123.23865 | 38019 ft | 469 kts | 234° |
| 2026-05-06 12:53 | 26.47237 | 123.18328 | 38019 ft | 468 kts | 234° |
| 2026-05-06 12:53 | 26.43005 | 123.12795 | 38020 ft | 468 kts | 234° |
| 2026-05-06 12:54 | 26.38777 | 123.07275 | 38036 ft | 467 kts | 234° |
| 2026-05-06 12:54 | 26.34549 | 123.01759 | 38012 ft | 467 kts | 234° |
| 2026-05-06 12:55 | 26.30348 | 122.96299 | 38010 ft | 467 kts | 234° |
| 2026-05-06 12:55 | 26.26105 | 122.90807 | 38011 ft | 467 kts | 234° |
| 2026-05-06 12:56 | 26.21868 | 122.85328 | 38019 ft | 467 kts | 233° |
| 2026-05-06 12:56 | 26.17631 | 122.79850 | 38022 ft | 467 kts | 233° |
| 2026-05-06 12:57 | 26.13396 | 122.74382 | 38019 ft | 467 kts | 233° |
| 2026-05-06 12:57 | 26.09148 | 122.68903 | 38022 ft | 467 kts | 233° |
| 2026-05-06 12:58 | 26.04907 | 122.63439 | 38017 ft | 467 kts | 233° |
| 2026-05-06 12:58 | 26.00684 | 122.58006 | 38008 ft | 467 kts | 233° |
| 2026-05-06 12:59 | 25.96438 | 122.52548 | 38010 ft | 467 kts | 233° |
| 2026-05-06 12:59 | 25.92220 | 122.47130 | 38013 ft | 463 kts | 233° |
| 2026-05-06 13:00 | 25.88005 | 122.41698 | 38011 ft | 465 kts | 233° |
| 2026-05-06 13:00 | 25.83775 | 122.36248 | 37995 ft | 466 kts | 234° |
| 2026-05-06 13:01 | 25.79531 | 122.30789 | 38015 ft | 467 kts | 233° |
| 2026-05-06 13:01 | 25.75268 | 122.25314 | 38010 ft | 469 kts | 233° |
| 2026-05-06 13:02 | 25.71030 | 122.19878 | 38008 ft | 469 kts | 233° |
| 2026-05-06 13:02 | 25.66756 | 122.14400 | 38008 ft | 470 kts | 233° |
| 2026-05-06 13:03 | 25.62483 | 122.08932 | 37998 ft | 469 kts | 233° |
| 2026-05-06 13:03 | 25.58204 | 122.03477 | 38001 ft | 469 kts | 233° |
| 2026-05-06 13:04 | 25.53923 | 121.98037 | 38003 ft | 468 kts | 233° |
| 2026-05-06 13:04 | 25.49644 | 121.92603 | 37995 ft | 468 kts | 233° |
| 2026-05-06 13:05 | 25.45370 | 121.87177 | 37997 ft | 467 kts | 233° |
| 2026-05-06 13:05 | 25.41094 | 121.81755 | 37981 ft | 467 kts | 233° |
| 2026-05-06 13:06 | 25.36849 | 121.76379 | 37979 ft | 467 kts | 233° |
| 2026-05-06 13:06 | 25.32572 | 121.70969 | 37975 ft | 467 kts | 233° |
| 2026-05-06 13:07 | 25.28292 | 121.65561 | 37973 ft | 468 kts | 233° |
| 2026-05-06 13:07 | 25.24005 | 121.60150 | 37968 ft | 468 kts | 233° |
| 2026-05-06 13:08 | 25.19714 | 121.54738 | 37958 ft | 468 kts | 233° |
| 2026-05-06 13:08 | 25.15427 | 121.49304 | 37957 ft | 468 kts | 234° |
| 2026-05-06 13:09 | 25.11232 | 121.43859 | 37962 ft | 468 kts | 234° |
| 2026-05-06 13:09 | 25.07015 | 121.38377 | 37964 ft | 469 kts | 234° |
| 2026-05-06 13:10 | 25.02782 | 121.32899 | 37971 ft | 469 kts | 234° |
| 2026-05-06 13:10 | 24.98538 | 121.27422 | 37969 ft | 469 kts | 234° |
| 2026-05-06 13:11 | 24.94299 | 121.21957 | 37973 ft | 469 kts | 234° |
| 2026-05-06 13:11 | 24.90058 | 121.16495 | 37971 ft | 469 kts | 234° |
| 2026-05-06 13:12 | 24.86533 | 121.11958 | 37969 ft | 469 kts | 234° |
| 2026-05-06 13:12 | 24.82295 | 121.06510 | 37979 ft | 468 kts | 234° |
| 2026-05-06 13:13 | 24.78066 | 121.01062 | 37984 ft | 468 kts | 234° |
| 2026-05-06 13:13 | 24.73840 | 120.95616 | 37974 ft | 468 kts | 234° |
| 2026-05-06 13:14 | 24.69607 | 120.90169 | 37975 ft | 468 kts | 234° |
| 2026-05-06 13:14 | 24.65375 | 120.84730 | 37976 ft | 468 kts | 234° |
| 2026-05-06 13:15 | 24.61138 | 120.79291 | 37970 ft | 468 kts | 234° |
| 2026-05-06 13:15 | 24.56902 | 120.73859 | 37984 ft | 468 kts | 234° |
| 2026-05-06 13:16 | 24.52464 | 120.68585 | 37991 ft | 471 kts | 231° |
| 2026-05-06 13:16 | 24.47918 | 120.63464 | 37987 ft | 471 kts | 230° |
| 2026-05-06 13:17 | 24.43342 | 120.58304 | 37986 ft | 471 kts | 231° |
| 2026-05-06 13:17 | 24.38776 | 120.53126 | 37988 ft | 471 kts | 231° |
| 2026-05-06 13:18 | 24.34215 | 120.47949 | 37990 ft | 471 kts | 231° |
| 2026-05-06 13:18 | 24.29656 | 120.42782 | 37989 ft | 472 kts | 231° |
| 2026-05-06 13:19 | 24.25088 | 120.37611 | 37978 ft | 472 kts | 230° |
| 2026-05-06 13:19 | 24.20544 | 120.32434 | 37982 ft | 471 kts | 231° |
| 2026-05-06 13:20 | 24.16012 | 120.27238 | 37969 ft | 472 kts | 231° |
| 2026-05-06 13:20 | 24.11484 | 120.22096 | 37976 ft | 472 kts | 230° |
| 2026-05-06 13:21 | 24.06924 | 120.16920 | 37981 ft | 472 kts | 231° |
| 2026-05-06 13:21 | 24.02363 | 120.11742 | 37980 ft | 472 kts | 230° |
| 2026-05-06 13:22 | 23.97794 | 120.06574 | 37974 ft | 472 kts | 230° |
| 2026-05-06 13:22 | 23.93209 | 120.01425 | 37974 ft | 472 kts | 230° |
| 2026-05-06 13:23 | 23.88623 | 119.96283 | 37982 ft | 472 kts | 230° |
| 2026-05-06 13:23 | 23.84063 | 119.91168 | 37980 ft | 472 kts | 230° |
| 2026-05-06 13:24 | 23.79470 | 119.86021 | 37978 ft | 473 kts | 230° |
| 2026-05-06 13:24 | 23.74876 | 119.80877 | 37982 ft | 473 kts | 230° |
| 2026-05-06 13:25 | 23.70283 | 119.75741 | 37981 ft | 473 kts | 230° |
| 2026-05-06 13:25 | 23.65690 | 119.70608 | 37994 ft | 473 kts | 230° |
| 2026-05-06 13:26 | 23.61100 | 119.65459 | 37990 ft | 472 kts | 232° |
| 2026-05-06 13:26 | 23.57148 | 119.59817 | 37994 ft | 466 kts | 242° |
| 2026-05-06 13:27 | 23.53767 | 119.53899 | 38004 ft | 462 kts | 242° |
| 2026-05-06 13:27 | 23.50353 | 119.47937 | 37976 ft | 465 kts | 242° |
| 2026-05-06 13:28 | 23.46898 | 119.41958 | 37991 ft | 467 kts | 241° |
| 2026-05-06 13:28 | 23.43418 | 119.35968 | 37989 ft | 469 kts | 241° |
| 2026-05-06 13:29 | 23.39920 | 119.29959 | 37984 ft | 470 kts | 241° |
| 2026-05-06 13:29 | 23.36414 | 119.23941 | 37979 ft | 471 kts | 241° |
| 2026-05-06 13:30 | 23.32902 | 119.17918 | 37982 ft | 471 kts | 241° |
| 2026-05-06 13:30 | 23.29393 | 119.11909 | 37981 ft | 470 kts | 241° |
| 2026-05-06 13:31 | 23.25884 | 119.05904 | 37987 ft | 470 kts | 241° |
| 2026-05-06 13:31 | 23.22400 | 118.99950 | 37990 ft | 469 kts | 241° |
| 2026-05-06 13:32 | 23.18896 | 118.93968 | 37988 ft | 469 kts | 241° |
| 2026-05-06 13:32 | 23.15391 | 118.87992 | 37992 ft | 468 kts | 241° |
| 2026-05-06 13:33 | 23.11888 | 118.82026 | 37991 ft | 468 kts | 241° |
| 2026-05-06 13:33 | 23.08381 | 118.76060 | 37984 ft | 468 kts | 241° |
| 2026-05-06 13:34 | 23.04870 | 118.70093 | 37988 ft | 468 kts | 241° |
| 2026-05-06 13:34 | 23.01354 | 118.64126 | 37992 ft | 469 kts | 241° |
| 2026-05-06 13:35 | 22.97838 | 118.58162 | 37989 ft | 469 kts | 241° |
| 2026-05-06 13:35 | 22.94334 | 118.52232 | 37989 ft | 470 kts | 241° |
| 2026-05-06 13:36 | 22.90787 | 118.46267 | 37992 ft | 470 kts | 241° |
| 2026-05-06 13:36 | 22.87242 | 118.40314 | 37978 ft | 470 kts | 240° |
| 2026-05-06 13:37 | 22.83692 | 118.34356 | 37993 ft | 470 kts | 240° |
| 2026-05-06 13:37 | 22.80137 | 118.28391 | 37996 ft | 470 kts | 240° |
| 2026-05-06 13:38 | 22.76605 | 118.22472 | 37993 ft | 471 kts | 240° |
| 2026-05-06 13:38 | 22.73043 | 118.16511 | 37991 ft | 471 kts | 240° |
| 2026-05-06 13:39 | 22.69477 | 118.10549 | 37989 ft | 471 kts | 240° |
| 2026-05-06 13:39 | 22.65913 | 118.04597 | 37994 ft | 471 kts | 240° |
| 2026-05-06 13:40 | 22.62346 | 117.98646 | 37994 ft | 471 kts | 240° |
| 2026-05-06 13:40 | 22.58786 | 117.92705 | 37990 ft | 471 kts | 241° |
| 2026-05-06 13:41 | 22.55240 | 117.86745 | 37989 ft | 470 kts | 241° |
| 2026-05-06 13:41 | 22.51699 | 117.80792 | 37992 ft | 470 kts | 241° |
| 2026-05-06 13:42 | 22.48178 | 117.74883 | 37991 ft | 470 kts | 241° |
| 2026-05-06 13:42 | 22.44626 | 117.68934 | 37974 ft | 470 kts | 240° |
| 2026-05-06 13:43 | 22.41079 | 117.62996 | 37999 ft | 471 kts | 240° |
| 2026-05-06 13:43 | 22.37519 | 117.57045 | 37985 ft | 471 kts | 240° |
| 2026-05-06 13:44 | 22.34443 | 117.50861 | 38002 ft | 464 kts | 254° |
| 2026-05-06 13:44 | 22.33091 | 117.44131 | 37978 ft | 459 kts | 269° |
| 2026-05-06 13:45 | 22.32967 | 117.37250 | 37993 ft | 459 kts | 271° |
| 2026-05-06 13:45 | 22.32874 | 117.26894 | 37994 ft | 460 kts | 271° |
| 2026-05-06 13:46 | 22.32763 | 117.19978 | 37987 ft | 460 kts | 271° |
| 2026-05-06 13:46 | 22.32632 | 117.13061 | 37990 ft | 460 kts | 270° |
| 2026-05-06 13:47 | 22.32495 | 117.06146 | 37997 ft | 460 kts | 270° |
| 2026-05-06 13:47 | 22.32358 | 116.99275 | 37991 ft | 460 kts | 270° |
| 2026-05-06 13:48 | 22.32218 | 116.92363 | 37984 ft | 460 kts | 270° |
| 2026-05-06 13:48 | 22.32075 | 116.85465 | 37987 ft | 459 kts | 270° |
| 2026-05-06 13:49 | 22.31930 | 116.78568 | 37975 ft | 459 kts | 270° |
| 2026-05-06 13:49 | 22.31781 | 116.71679 | 37995 ft | 459 kts | 270° |
| 2026-05-06 13:50 | 22.31630 | 116.64785 | 37998 ft | 459 kts | 270° |
| 2026-05-06 13:50 | 22.31476 | 116.57895 | 37831 ft | 456 kts | 270° |
| 2026-05-06 13:51 | 22.31398 | 116.54467 | 37455 ft | 457 kts | 270° |
| 2026-05-06 13:51 | 22.31320 | 116.51070 | 37000 ft | 459 kts | 270° |
| 2026-05-06 13:51 | 22.31241 | 116.47608 | 36523 ft | 462 kts | 270° |
| 2026-05-06 13:51 | 22.31160 | 116.44132 | 36046 ft | 465 kts | 270° |
| 2026-05-06 13:52 | 22.31078 | 116.40636 | 35589 ft | 467 kts | 270° |
| 2026-05-06 13:52 | 22.30994 | 116.37115 | 35133 ft | 469 kts | 270° |
| 2026-05-06 13:52 | 22.30910 | 116.33590 | 34693 ft | 470 kts | 269° |
| 2026-05-06 13:52 | 22.30824 | 116.30058 | 34246 ft | 471 kts | 269° |
| 2026-05-06 13:53 | 22.30738 | 116.26511 | 33765 ft | 473 kts | 269° |
| 2026-05-06 13:53 | 22.30650 | 116.22956 | 33241 ft | 474 kts | 269° |
| 2026-05-06 13:53 | 22.30562 | 116.19391 | 32697 ft | 475 kts | 269° |
| 2026-05-06 13:53 | 22.30472 | 116.15817 | 32128 ft | 477 kts | 269° |
| 2026-05-06 13:54 | 22.30382 | 116.12227 | 31541 ft | 479 kts | 269° |
| 2026-05-06 13:54 | 22.30290 | 116.08618 | 30948 ft | 481 kts | 269° |
| 2026-05-06 13:54 | 22.30197 | 116.05003 | 30446 ft | 481 kts | 269° |
| 2026-05-06 13:54 | 22.30104 | 116.01445 | 30089 ft | 478 kts | 268° |
| 2026-05-06 13:55 | 22.30011 | 115.97872 | 29738 ft | 474 kts | 268° |
| 2026-05-06 13:55 | 22.29917 | 115.94334 | 29393 ft | 470 kts | 268° |
| 2026-05-06 13:55 | 22.29824 | 115.90818 | 29022 ft | 467 kts | 268° |
| 2026-05-06 13:55 | 22.29731 | 115.87326 | 28649 ft | 464 kts | 268° |
| 2026-05-06 13:56 | 22.29637 | 115.83853 | 28293 ft | 461 kts | 268° |
| 2026-05-06 13:56 | 22.29547 | 115.80406 | 27954 ft | 458 kts | 269° |
| 2026-05-06 13:56 | 22.29472 | 115.76971 | 27624 ft | 455 kts | 269° |
| 2026-05-06 13:56 | 22.29401 | 115.73567 | 27294 ft | 452 kts | 269° |
| 2026-05-06 13:57 | 22.29327 | 115.70172 | 26969 ft | 450 kts | 269° |
| 2026-05-06 13:57 | 22.29247 | 115.66805 | 26646 ft | 447 kts | 268° |
| 2026-05-06 13:57 | 22.29157 | 115.63457 | 26326 ft | 445 kts | 268° |
| 2026-05-06 13:57 | 22.29062 | 115.60123 | 25983 ft | 443 kts | 268° |
| 2026-05-06 13:58 | 22.28998 | 115.57928 | 25765 ft | 441 kts | 268° |
| 2026-05-06 13:58 | 22.28872 | 115.53539 | 25346 ft | 438 kts | 268° |
| 2026-05-06 13:58 | 22.28778 | 115.50260 | 25055 ft | 436 kts | 268° |
| 2026-05-06 13:58 | 22.28715 | 115.48052 | 24707 ft | 435 kts | 268° |
| 2026-05-06 13:59 | 22.28622 | 115.44788 | 24059 ft | 435 kts | 268° |
| 2026-05-06 13:59 | 22.28528 | 115.41530 | 23358 ft | 434 kts | 268° |
| 2026-05-06 13:59 | 22.28435 | 115.38315 | 22602 ft | 432 kts | 268° |
| 2026-05-06 13:59 | 22.28341 | 115.35078 | 21905 ft | 430 kts | 268° |
| 2026-05-06 14:00 | 22.28246 | 115.31864 | 21222 ft | 427 kts | 267° |
| 2026-05-06 14:00 | 22.28148 | 115.28667 | 20566 ft | 425 kts | 267° |
| 2026-05-06 14:00 | 22.28050 | 115.25479 | 19910 ft | 423 kts | 267° |
| 2026-05-06 14:00 | 22.27951 | 115.22300 | 19241 ft | 422 kts | 267° |
| 2026-05-06 14:01 | 22.27853 | 115.19134 | 18582 ft | 422 kts | 268° |
| 2026-05-06 14:01 | 22.27754 | 115.15974 | 18005 ft | 420 kts | 268° |
| 2026-05-06 14:01 | 22.27655 | 115.12827 | 17691 ft | 418 kts | 268° |
| 2026-05-06 14:01 | 22.27556 | 115.09707 | 17211 ft | 414 kts | 268° |
| 2026-05-06 14:02 | 22.27459 | 115.06652 | 16543 ft | 399 kts | 268° |
| 2026-05-06 14:02 | 22.27365 | 115.03711 | 15940 ft | 385 kts | 268° |
| 2026-05-06 14:02 | 22.27274 | 115.00870 | 15354 ft | 373 kts | 268° |
| 2026-05-06 14:02 | 22.27184 | 114.98073 | 14789 ft | 373 kts | 269° |
| 2026-05-06 14:03 | 22.27093 | 114.95270 | 14198 ft | 374 kts | 269° |
| 2026-05-06 14:03 | 22.27001 | 114.92452 | 13576 ft | 376 kts | 269° |
| 2026-05-06 14:03 | 22.26906 | 114.89626 | 12929 ft | 376 kts | 269° |
| 2026-05-06 14:03 | 22.26808 | 114.86822 | 12334 ft | 384 kts | 268° |
| 2026-05-06 14:04 | 22.26706 | 114.83940 | 11844 ft | 377 kts | 268° |
| 2026-05-06 14:04 | 22.26594 | 114.81138 | 11206 ft | 371 kts | 265° |
| 2026-05-06 14:04 | 22.25987 | 114.78517 | 11001 ft | 351 kts | 247° |
| 2026-05-06 14:04 | 22.24766 | 114.76346 | 10801 ft | 325 kts | 232° |
| 2026-05-06 14:05 | 22.23257 | 114.74673 | 10631 ft | 297 kts | 225° |
| 2026-05-06 14:05 | 22.21805 | 114.73204 | 10502 ft | 277 kts | 225° |
| 2026-05-06 14:05 | 22.20398 | 114.71784 | 10401 ft | 279 kts | 225° |
| 2026-05-06 14:05 | 22.18973 | 114.70340 | 10274 ft | 281 kts | 225° |
| 2026-05-06 14:06 | 22.17559 | 114.68903 | 10145 ft | 278 kts | 225° |
| 2026-05-06 14:06 | 22.16200 | 114.67448 | 9979 ft | 270 kts | 234° |
| 2026-05-06 14:06 | 22.15363 | 114.65679 | 9876 ft | 263 kts | 252° |
| 2026-05-06 14:06 | 22.14839 | 114.63771 | 9760 ft | 268 kts | 256° |
| 2026-05-06 14:07 | 22.14366 | 114.61818 | 9618 ft | 271 kts | 256° |
| 2026-05-06 14:07 | 22.13900 | 114.59852 | 9508 ft | 269 kts | 256° |
| 2026-05-06 14:07 | 22.13449 | 114.57928 | 9407 ft | 267 kts | 256° |
| 2026-05-06 14:07 | 22.13001 | 114.55999 | 9333 ft | 264 kts | 256° |
| 2026-05-06 14:08 | 22.12558 | 114.54087 | 9264 ft | 263 kts | 256° |
| 2026-05-06 14:08 | 22.12115 | 114.52160 | 9231 ft | 266 kts | 257° |
| 2026-05-06 14:08 | 22.11669 | 114.50212 | 9192 ft | 268 kts | 256° |
| 2026-05-06 14:08 | 22.11230 | 114.48269 | 9178 ft | 265 kts | 257° |
| 2026-05-06 14:09 | 22.10794 | 114.46337 | 9163 ft | 265 kts | 256° |
| 2026-05-06 14:09 | 22.10362 | 114.44404 | 9028 ft | 266 kts | 256° |
| 2026-05-06 14:09 | 22.09931 | 114.42465 | 8775 ft | 264 kts | 256° |
| 2026-05-06 14:09 | 22.09506 | 114.40534 | 8508 ft | 265 kts | 256° |
| 2026-05-06 14:10 | 22.09089 | 114.38612 | 8236 ft | 262 kts | 256° |
| 2026-05-06 14:10 | 22.08677 | 114.36687 | 7839 ft | 264 kts | 256° |
| 2026-05-06 14:10 | 22.08266 | 114.34748 | 7502 ft | 264 kts | 256° |
| 2026-05-06 14:10 | 22.07868 | 114.32835 | 7261 ft | 260 kts | 257° |
| 2026-05-06 14:11 | 22.07481 | 114.30952 | 6953 ft | 260 kts | 257° |
| 2026-05-06 14:11 | 22.07240 | 114.29003 | 6576 ft | 262 kts | 265° |
| 2026-05-06 14:11 | 22.07152 | 114.27063 | 6262 ft | 261 kts | 266° |
| 2026-05-06 14:11 | 22.07098 | 114.25110 | 5927 ft | 260 kts | 266° |
| 2026-05-06 14:12 | 22.07042 | 114.23159 | 5643 ft | 259 kts | 266° |
| 2026-05-06 14:12 | 22.06983 | 114.21222 | 5398 ft | 258 kts | 266° |
| 2026-05-06 14:12 | 22.06929 | 114.19289 | 5165 ft | 259 kts | 266° |
| 2026-05-06 14:12 | 22.06879 | 114.17343 | 4923 ft | 261 kts | 267° |
| 2026-05-06 14:13 | 22.06822 | 114.15376 | 4711 ft | 263 kts | 266° |
| 2026-05-06 14:13 | 22.06774 | 114.13395 | 4452 ft | 265 kts | 266° |
| 2026-05-06 14:13 | 22.06733 | 114.11399 | 4209 ft | 267 kts | 267° |
| 2026-05-06 14:13 | 22.06685 | 114.09395 | 3980 ft | 267 kts | 266° |
| 2026-05-06 14:14 | 22.06639 | 114.07402 | 3728 ft | 265 kts | 267° |
| 2026-05-06 14:14 | 22.06748 | 114.05487 | 3466 ft | 263 kts | 276° |
| 2026-05-06 14:14 | 22.07030 | 114.03548 | 3230 ft | 261 kts | 277° |
| 2026-05-06 14:14 | 22.07331 | 114.01633 | 3087 ft | 256 kts | 278° |
| 2026-05-06 14:15 | 22.07623 | 113.99736 | 3048 ft | 259 kts | 277° |
| 2026-05-06 14:15 | 22.07909 | 113.97801 | 3011 ft | 263 kts | 277° |
| 2026-05-06 14:15 | 22.08193 | 113.95840 | 3014 ft | 265 kts | 277° |
| 2026-05-06 14:15 | 22.08472 | 113.93878 | 3015 ft | 267 kts | 277° |
| 2026-05-06 14:16 | 22.08752 | 113.91873 | 3022 ft | 272 kts | 277° |
| 2026-05-06 14:16 | 22.09034 | 113.89838 | 3019 ft | 275 kts | 277° |
| 2026-05-06 14:16 | 22.09315 | 113.87800 | 3018 ft | 274 kts | 277° |
| 2026-05-06 14:16 | 22.09594 | 113.85767 | 3003 ft | 273 kts | 276° |
| 2026-05-06 14:17 | 22.09870 | 113.83743 | 2998 ft | 272 kts | 277° |
| 2026-05-06 14:17 | 22.10142 | 113.81763 | 2975 ft | 258 kts | 276° |
| 2026-05-06 14:17 | 22.10388 | 113.79969 | 2936 ft | 231 kts | 276° |
| 2026-05-06 14:17 | 22.10712 | 113.78298 | 2968 ft | 227 kts | 294° |
| 2026-05-06 14:18 | 22.11736 | 113.77067 | 3011 ft | 224 kts | 332° |
| 2026-05-06 14:18 | 22.13151 | 113.76334 | 3007 ft | 228 kts | 335° |
| 2026-05-06 14:18 | 22.14587 | 113.75621 | 2839 ft | 227 kts | 335° |
| 2026-05-06 14:18 | 22.15968 | 113.74937 | 2613 ft | 208 kts | 336° |
| 2026-05-06 14:19 | 22.17259 | 113.74298 | 2487 ft | 203 kts | 335° |
| 2026-05-06 14:19 | 22.18560 | 113.73652 | 2403 ft | 207 kts | 336° |
| 2026-05-06 14:19 | 22.19858 | 113.73006 | 2276 ft | 202 kts | 336° |
| 2026-05-06 14:19 | 22.21126 | 113.72374 | 2155 ft | 200 kts | 336° |
| 2026-05-06 14:20 | 22.22394 | 113.71760 | 2063 ft | 199 kts | 343° |
| 2026-05-06 14:20 | 22.23731 | 113.71735 | 1925 ft | 192 kts | 27° |
| 2026-05-06 14:20 | 22.24789 | 113.72565 | 1874 ft | 190 kts | 45° |
| 2026-05-06 14:20 | 22.25791 | 113.73493 | 1784 ft | 194 kts | 44° |
| 2026-05-06 14:21 | 22.26815 | 113.74432 | 1659 ft | 191 kts | 44° |
| 2026-05-06 14:21 | 22.27750 | 113.75410 | 1545 ft | 183 kts | 60° |
| 2026-05-06 14:21 | 22.28291 | 113.76633 | 1539 ft | 182 kts | 68° |
| 2026-05-06 14:21 | 22.28785 | 113.77843 | 1502 ft | 168 kts | 71° |
| 2026-05-06 14:22 | 22.29170 | 113.78968 | 1501 ft | 154 kts | 73° |
| 2026-05-06 14:22 | 22.29516 | 113.80029 | 1485 ft | 148 kts | 74° |
| 2026-05-06 14:22 | 22.29858 | 113.81092 | 1367 ft | 151 kts | 73° |
| 2026-05-06 14:22 | 22.30196 | 113.82134 | 1167 ft | 144 kts | 75° |
| 2026-05-06 14:23 | 22.30506 | 113.83129 | 983 ft | 140 kts | 73° |
| 2026-05-06 14:23 | 22.30832 | 113.84115 | 822 ft | 140 kts | 72° |
| 2026-05-06 14:23 | 22.31164 | 113.85101 | 667 ft | 138 kts | 73° |
| 2026-05-06 14:23 | 22.31465 | 113.86071 | 464 ft | 135 kts | 72° |
| 2026-05-06 14:24 | 22.31777 | 113.87025 | 302 ft | 133 kts | 73° |
| 2026-05-06 14:24 | 22.32078 | 113.87963 | 135 ft | 131 kts | 73° |
| 2026-05-06 14:24 | 22.32378 | 113.88893 | 50 ft | 129 kts | 73° |
| 2026-05-06 14:24 | 22.32635 | 113.89694 | 41 ft | 89 kts | 71° |
| 2026-05-06 14:25 | 22.32770 | 113.90118 | 41 ft | 38 kts | 71° |
| 2026-05-06 14:25 | 22.32820 | 113.90292 | 40 ft | 20 kts | 80° |
| 2026-05-06 14:25 | 22.32823 | 113.90430 | 40 ft | 17 kts | 97° |
| 2026-05-06 14:25 | 22.32806 | 113.90521 | 40 ft | 8 kts | 108° |
| 2026-05-06 14:26 | 22.32804 | 113.90526 | 40 ft | 0 kts | 109° |
| 2026-05-06 14:26 | 22.32801 | 113.90537 | 40 ft | 5 kts | 109° |
| 2026-05-06 14:27 | 22.32786 | 113.90609 | 40 ft | 14 kts | 96° |
| 2026-05-06 14:27 | 22.32792 | 113.90742 | 40 ft | 20 kts | 73° |
| 2026-05-06 14:27 | 22.32838 | 113.90884 | 40 ft | 20 kts | 71° |
| 2026-05-06 14:27 | 22.32884 | 113.91026 | 40 ft | 20 kts | 70° |
| 2026-05-06 14:28 | 22.32930 | 113.91167 | 40 ft | 20 kts | 71° |
| 2026-05-06 14:28 | 22.32975 | 113.91308 | 40 ft | 20 kts | 71° |
| 2026-05-06 14:28 | 22.33021 | 113.91449 | 40 ft | 20 kts | 70° |
| 2026-05-06 14:28 | 22.33066 | 113.91589 | 40 ft | 20 kts | 71° |
| 2026-05-06 14:29 | 22.33112 | 113.91730 | 40 ft | 20 kts | 71° |
| 2026-05-06 14:29 | 22.33156 | 113.91868 | 40 ft | 17 kts | 71° |
| 2026-05-06 14:29 | 22.33191 | 113.91974 | 40 ft | 15 kts | 71° |
| 2026-05-06 14:29 | 22.33212 | 113.92081 | 40 ft | 15 kts | 108° |
| 2026-05-06 14:30 | 22.33125 | 113.92136 | 40 ft | 15 kts | 161° |
| 2026-05-06 14:30 | 22.33026 | 113.92173 | 40 ft | 15 kts | 161° |
| 2026-05-06 14:30 | 22.32928 | 113.92211 | 40 ft | 15 kts | 160° |
| 2026-05-06 14:30 | 22.32829 | 113.92248 | 40 ft | 15 kts | 161° |
| 2026-05-06 14:31 | 22.32731 | 113.92285 | 40 ft | 15 kts | 160° |
| 2026-05-06 14:31 | 22.32634 | 113.92322 | 40 ft | 15 kts | 161° |
| 2026-05-06 14:31 | 22.32535 | 113.92358 | 40 ft | 15 kts | 161° |
| 2026-05-06 14:31 | 22.32436 | 113.92396 | 40 ft | 15 kts | 160° |
| 2026-05-06 14:32 | 22.32339 | 113.92433 | 40 ft | 15 kts | 161° |
| 2026-05-06 14:32 | 22.32253 | 113.92464 | 40 ft | 12 kts | 161° |
| 2026-05-06 14:32 | 22.32181 | 113.92499 | 40 ft | 11 kts | 133° |
| 2026-05-06 14:32 | 22.32177 | 113.92578 | 40 ft | 10 kts | 71° |
| 2026-05-06 14:33 | 22.32193 | 113.92651 | 40 ft | 8 kts | 96° |
| 2026-05-06 14:33 | 22.32167 | 113.92687 | 40 ft | 6 kts | 146° |
| 2026-05-06 14:33 | 22.32127 | 113.92706 | 40 ft | 6 kts | 159° |
| 2026-05-06 14:33 | 22.32083 | 113.92722 | 40 ft | 7 kts | 161° |
| 2026-05-06 14:34 | 22.32037 | 113.92740 | 40 ft | 7 kts | 160° |
| 2026-05-06 14:34 | 22.31990 | 113.92758 | 40 ft | 7 kts | 160° |
| 2026-05-06 14:34 | 22.31943 | 113.92776 | 40 ft | 7 kts | 160° |
| 2026-05-06 14:34 | 22.31896 | 113.92785 | 40 ft | 7 kts | 197° |
| 2026-05-06 14:35 | 22.31864 | 113.92743 | 40 ft | 7 kts | 244° |
| 2026-05-06 14:35 | 22.31847 | 113.92699 | 40 ft | 7 kts | 250° |
| 2026-05-06 14:35 | 22.31830 | 113.92646 | 40 ft | 7 kts | 250° |
| 2026-05-06 14:35 | 22.31812 | 113.92591 | 40 ft | 10 kts | 251° |
| 2026-05-06 14:36 | 22.31786 | 113.92510 | 40 ft | 12 kts | 251° |
| 2026-05-06 14:36 | 22.31759 | 113.92425 | 40 ft | 12 kts | 251° |
| 2026-05-06 14:36 | 22.31731 | 113.92338 | 40 ft | 12 kts | 251° |
| 2026-05-06 14:36 | 22.31702 | 113.92249 | 40 ft | 13 kts | 251° |
| 2026-05-06 14:37 | 22.31672 | 113.92156 | 40 ft | 14 kts | 251° |
| 2026-05-06 14:37 | 22.31642 | 113.92064 | 40 ft | 12 kts | 246° |
| 2026-05-06 14:37 | 22.31569 | 113.92041 | 40 ft | 12 kts | 168° |
| 2026-05-06 14:37 | 22.31489 | 113.92069 | 40 ft | 12 kts | 160° |
| 2026-05-06 14:38 | 22.31424 | 113.92115 | 40 ft | 11 kts | 125° |
| 2026-05-06 14:38 | 22.31389 | 113.92190 | 40 ft | 11 kts | 115° |
| 2026-05-06 14:38 | 22.31356 | 113.92264 | 40 ft | 11 kts | 115° |
| 2026-05-06 14:38 | 22.31322 | 113.92340 | 40 ft | 11 kts | 116° |
| 2026-05-06 14:39 | 22.31288 | 113.92415 | 40 ft | 11 kts | 116° |
| 2026-05-06 14:39 | 22.31255 | 113.92487 | 40 ft | 10 kts | 118° |
| 2026-05-06 14:39 | 22.31207 | 113.92512 | 40 ft | 8 kts | 188° |
| 2026-05-06 14:39 | 22.31158 | 113.92492 | 40 ft | 7 kts | 205° |
| 2026-05-06 14:40 | 22.31118 | 113.92485 | 40 ft | 5 kts | 148° |
| 2026-05-06 14:40 | 22.31097 | 113.92519 | 40 ft | 6 kts | 118° |
| 2026-05-06 14:40 | 22.31084 | 113.92547 | 40 ft | 2 kts | 116° |
| 2026-05-06 14:40 | 22.31080 | 113.92555 | 40 ft | 1 kts | 116° |
| 2026-05-06 14:41 | 22.31080 | 113.92556 | 40 ft | 0 kts | 116° |